sensor_id;sensor_type;location;lat;lon;timestamp;P1;durP1;ratioP1;P2;durP2;ratioP2
15458;SDS011;59054;48.692;9.136;2022-08-05T00:00:04;5.43;;;2.85;;
15458;SDS011;59054;48.692;9.136;2022-08-05T00:02:32;6.53;;;2.45;;
15458;SDS011;59054;48.692;9.136;2022-08-05T00:04:59;3.55;;;2.83;;
15458;SDS011;59054;48.692;9.136;2022-08-05T00:07:26;3.72;;;2.80;;
15458;SDS011;59054;48.692;9.136;2022-08-05T00:09:55;3.10;;;2.70;;
15458;SDS011;59054;48.692;9.136;2022-08-05T00:12:22;3.70;;;2.67;;
15458;SDS011;59054;48.692;9.136;2022-08-05T00:14:49;7.57;;;2.72;;
15458;SDS011;59054;48.692;9.136;2022-08-05T00:17:16;2.67;;;2.47;;
15458;SDS011;59054;48.692;9.136;2022-08-05T00:19:44;2.50;;;2.30;;
15458;SDS011;59054;48.692;9.136;2022-08-05T00:22:11;4.90;;;2.70;;
15458;SDS011;59054;48.692;9.136;2022-08-05T00:24:39;3.60;;;3.30;;
15458;SDS011;59054;48.692;9.136;2022-08-05T00:27:08;5.23;;;2.67;;
15458;SDS011;59054;48.692;9.136;2022-08-05T00:29:35;4.90;;;3.03;;
15458;SDS011;59054;48.692;9.136;2022-08-05T00:32:02;4.17;;;2.90;;
15458;SDS011;59054;48.692;9.136;2022-08-05T00:34:31;2.83;;;2.43;;
15458;SDS011;59054;48.692;9.136;2022-08-05T00:36:58;3.43;;;2.83;;
15458;SDS011;59054;48.692;9.136;2022-08-05T00:39:25;4.00;;;2.83;;
15458;SDS011;59054;48.692;9.136;2022-08-05T00:41:53;3.97;;;2.73;;
15458;SDS011;59054;48.692;9.136;2022-08-05T00:44:21;4.00;;;2.90;;
15458;SDS011;59054;48.692;9.136;2022-08-05T00:46:49;3.20;;;2.63;;
15458;SDS011;59054;48.692;9.136;2022-08-05T00:49:16;3.57;;;2.83;;
15458;SDS011;59054;48.692;9.136;2022-08-05T00:51:44;3.60;;;3.13;;
15458;SDS011;59054;48.692;9.136;2022-08-05T00:54:11;5.25;;;3.00;;
15458;SDS011;59054;48.692;9.136;2022-08-05T00:56:38;3.23;;;2.80;;
15458;SDS011;59054;48.692;9.136;2022-08-05T00:59:05;4.17;;;3.10;;
15458;SDS011;59054;48.692;9.136;2022-08-05T01:01:34;4.63;;;2.90;;
15458;SDS011;59054;48.692;9.136;2022-08-05T01:04:01;7.17;;;2.90;;
15458;SDS011;59054;48.692;9.136;2022-08-05T01:06:29;3.80;;;3.27;;
15458;SDS011;59054;48.692;9.136;2022-08-05T01:08:56;5.40;;;2.60;;
15458;SDS011;59054;48.692;9.136;2022-08-05T01:11:26;3.40;;;2.73;;
15458;SDS011;59054;48.692;9.136;2022-08-05T01:13:56;4.87;;;2.30;;
15458;SDS011;59054;48.692;9.136;2022-08-05T01:16:26;3.35;;;2.10;;
15458;SDS011;59054;48.692;9.136;2022-08-05T01:18:58;4.22;;;2.08;;
15458;SDS011;59054;48.692;9.136;2022-08-05T01:24:13;4.73;;;2.10;;
15458;SDS011;59054;48.692;9.136;2022-08-05T01:26:53;2.20;;;2.00;;
15458;SDS011;59054;48.692;9.136;2022-08-05T01:29:26;5.70;;;2.00;;
15458;SDS011;59054;48.692;9.136;2022-08-05T01:31:57;3.67;;;2.00;;
15458;SDS011;59054;48.692;9.136;2022-08-05T01:34:27;5.40;;;2.33;;
15458;SDS011;59054;48.692;9.136;2022-08-05T01:36:57;3.72;;;2.20;;
15458;SDS011;59054;48.692;9.136;2022-08-05T01:39:26;4.43;;;2.30;;
15458;SDS011;59054;48.692;9.136;2022-08-05T01:41:54;6.43;;;2.22;;
15458;SDS011;59054;48.692;9.136;2022-08-05T01:44:22;5.60;;;2.20;;
15458;SDS011;59054;48.692;9.136;2022-08-05T01:46:51;5.43;;;2.10;;
15458;SDS011;59054;48.692;9.136;2022-08-05T01:49:19;6.20;;;2.15;;
15458;SDS011;59054;48.692;9.136;2022-08-05T01:51:47;4.72;;;2.15;;
15458;SDS011;59054;48.692;9.136;2022-08-05T01:54:14;10.10;;;2.53;;
15458;SDS011;59054;48.692;9.136;2022-08-05T01:56:43;7.57;;;2.13;;
15458;SDS011;59054;48.692;9.136;2022-08-05T01:59:12;6.60;;;2.10;;
15458;SDS011;59054;48.692;9.136;2022-08-05T02:01:43;5.72;;;2.30;;
15458;SDS011;59054;48.692;9.136;2022-08-05T02:04:14;6.43;;;2.40;;
15458;SDS011;59054;48.692;9.136;2022-08-05T02:06:43;6.03;;;2.08;;
15458;SDS011;59054;48.692;9.136;2022-08-05T02:09:10;5.93;;;2.40;;
15458;SDS011;59054;48.692;9.136;2022-08-05T02:11:40;6.30;;;2.05;;
15458;SDS011;59054;48.692;9.136;2022-08-05T02:14:10;4.68;;;2.05;;
15458;SDS011;59054;48.692;9.136;2022-08-05T02:16:39;7.22;;;2.33;;
15458;SDS011;59054;48.692;9.136;2022-08-05T02:19:09;6.03;;;2.10;;
15458;SDS011;59054;48.692;9.136;2022-08-05T02:21:41;6.63;;;2.17;;
15458;SDS011;59054;48.692;9.136;2022-08-05T02:24:10;3.53;;;2.00;;
15458;SDS011;59054;48.692;9.136;2022-08-05T02:26:40;3.30;;;2.13;;
15458;SDS011;59054;48.692;9.136;2022-08-05T02:29:09;7.45;;;2.17;;
15458;SDS011;59054;48.692;9.136;2022-08-05T02:31:38;6.07;;;2.60;;
15458;SDS011;59054;48.692;9.136;2022-08-05T02:34:07;6.72;;;2.22;;
15458;SDS011;59054;48.692;9.136;2022-08-05T02:36:38;4.40;;;2.30;;
15458;SDS011;59054;48.692;9.136;2022-08-05T02:39:08;4.60;;;2.10;;
15458;SDS011;59054;48.692;9.136;2022-08-05T02:41:36;10.55;;;2.92;;
15458;SDS011;59054;48.692;9.136;2022-08-05T02:44:05;8.20;;;3.00;;
15458;SDS011;59054;48.692;9.136;2022-08-05T02:46:33;7.30;;;2.30;;
15458;SDS011;59054;48.692;9.136;2022-08-05T02:49:00;6.07;;;2.67;;
15458;SDS011;59054;48.692;9.136;2022-08-05T02:51:27;7.95;;;2.17;;
15458;SDS011;59054;48.692;9.136;2022-08-05T02:53:55;9.27;;;2.72;;
15458;SDS011;59054;48.692;9.136;2022-08-05T02:56:23;6.50;;;2.63;;
15458;SDS011;59054;48.692;9.136;2022-08-05T02:58:51;8.75;;;2.25;;
15458;SDS011;59054;48.692;9.136;2022-08-05T03:01:21;5.47;;;2.50;;
15458;SDS011;59054;48.692;9.136;2022-08-05T03:03:49;7.10;;;1.98;;
15458;SDS011;59054;48.692;9.136;2022-08-05T03:06:18;8.95;;;2.55;;
15458;SDS011;59054;48.692;9.136;2022-08-05T03:08:46;12.55;;;2.80;;
15458;SDS011;59054;48.692;9.136;2022-08-05T03:11:20;8.88;;;2.60;;
15458;SDS011;59054;48.692;9.136;2022-08-05T03:13:49;7.72;;;2.67;;
15458;SDS011;59054;48.692;9.136;2022-08-05T03:16:16;7.05;;;2.55;;
15458;SDS011;59054;48.692;9.136;2022-08-05T03:18:43;5.53;;;2.30;;
15458;SDS011;59054;48.692;9.136;2022-08-05T03:21:10;7.63;;;2.80;;
15458;SDS011;59054;48.692;9.136;2022-08-05T03:23:38;4.57;;;2.40;;
15458;SDS011;59054;48.692;9.136;2022-08-05T03:26:06;9.05;;;3.60;;
15458;SDS011;59054;48.692;9.136;2022-08-05T03:28:33;8.15;;;3.60;;
15458;SDS011;59054;48.692;9.136;2022-08-05T03:31:02;4.28;;;2.72;;
15458;SDS011;59054;48.692;9.136;2022-08-05T03:33:30;9.43;;;3.28;;
15458;SDS011;59054;48.692;9.136;2022-08-05T03:35:57;5.05;;;2.63;;
15458;SDS011;59054;48.692;9.136;2022-08-05T03:38:25;6.97;;;2.30;;
15458;SDS011;59054;48.692;9.136;2022-08-05T03:40:52;2.83;;;2.28;;
15458;SDS011;59054;48.692;9.136;2022-08-05T03:43:20;5.63;;;2.75;;
15458;SDS011;59054;48.692;9.136;2022-08-05T03:45:48;4.73;;;2.20;;
15458;SDS011;59054;48.692;9.136;2022-08-05T03:48:18;5.95;;;2.28;;
15458;SDS011;59054;48.692;9.136;2022-08-05T03:50:47;6.88;;;2.47;;
15458;SDS011;59054;48.692;9.136;2022-08-05T03:53:18;6.63;;;2.67;;
15458;SDS011;59054;48.692;9.136;2022-08-05T03:55:51;5.30;;;2.53;;
15458;SDS011;59054;48.692;9.136;2022-08-05T03:58:19;11.37;;;2.23;;
15458;SDS011;59054;48.692;9.136;2022-08-05T04:00:48;6.17;;;2.37;;
15458;SDS011;59054;48.692;9.136;2022-08-05T04:03:19;4.50;;;2.20;;
15458;SDS011;59054;48.692;9.136;2022-08-05T04:05:49;6.10;;;2.37;;
15458;SDS011;59054;48.692;9.136;2022-08-05T04:08:17;10.07;;;3.00;;
15458;SDS011;59054;48.692;9.136;2022-08-05T04:10:44;8.23;;;2.80;;
15458;SDS011;59054;48.692;9.136;2022-08-05T04:13:11;8.13;;;4.00;;
15458;SDS011;59054;48.692;9.136;2022-08-05T04:15:39;4.90;;;2.30;;
15458;SDS011;59054;48.692;9.136;2022-08-05T04:18:06;6.38;;;3.10;;
15458;SDS011;59054;48.692;9.136;2022-08-05T04:20:34;7.17;;;2.70;;
15458;SDS011;59054;48.692;9.136;2022-08-05T04:23:02;6.40;;;2.70;;
15458;SDS011;59054;48.692;9.136;2022-08-05T04:25:29;5.93;;;2.83;;
15458;SDS011;59054;48.692;9.136;2022-08-05T04:27:56;8.47;;;2.83;;
15458;SDS011;59054;48.692;9.136;2022-08-05T04:30:23;6.73;;;3.10;;
15458;SDS011;59054;48.692;9.136;2022-08-05T04:32:50;7.40;;;2.87;;
15458;SDS011;59054;48.692;9.136;2022-08-05T04:35:18;4.33;;;2.67;;
15458;SDS011;59054;48.692;9.136;2022-08-05T04:40:33;5.50;;;2.60;;
15458;SDS011;59054;48.692;9.136;2022-08-05T04:43:00;5.80;;;2.67;;
15458;SDS011;59054;48.692;9.136;2022-08-05T04:45:27;7.07;;;2.80;;
15458;SDS011;59054;48.692;9.136;2022-08-05T04:48:01;6.53;;;3.07;;
15458;SDS011;59054;48.692;9.136;2022-08-05T04:50:31;3.97;;;2.70;;
15458;SDS011;59054;48.692;9.136;2022-08-05T04:53:07;5.07;;;2.73;;
15458;SDS011;59054;48.692;9.136;2022-08-05T04:55:37;5.47;;;2.80;;
15458;SDS011;59054;48.692;9.136;2022-08-05T04:58:05;6.90;;;2.77;;
15458;SDS011;59054;48.692;9.136;2022-08-05T05:00:33;6.37;;;2.87;;
15458;SDS011;59054;48.692;9.136;2022-08-05T05:03:01;5.17;;;2.73;;
15458;SDS011;59054;48.692;9.136;2022-08-05T05:11:38;9.07;;;2.80;;
15458;SDS011;59054;48.692;9.136;2022-08-05T05:14:05;5.50;;;3.30;;
15458;SDS011;59054;48.692;9.136;2022-08-05T05:16:35;4.57;;;3.00;;
15458;SDS011;59054;48.692;9.136;2022-08-05T05:19:02;10.87;;;3.10;;
15458;SDS011;59054;48.692;9.136;2022-08-05T05:21:32;5.73;;;2.93;;
15458;SDS011;59054;48.692;9.136;2022-08-05T05:24:04;5.77;;;3.00;;
15458;SDS011;59054;48.692;9.136;2022-08-05T11:38:13;0.70;;;0.70;;
15458;SDS011;59054;48.692;9.136;2022-08-05T11:43:24;0.60;;;0.40;;
15458;SDS011;59054;48.692;9.136;2022-08-05T11:45:51;0.70;;;0.57;;
15458;SDS011;59054;48.692;9.136;2022-08-05T11:48:18;0.70;;;0.70;;
15458;SDS011;59054;48.692;9.136;2022-08-05T11:50:46;0.90;;;0.90;;
15458;SDS011;59054;48.692;9.136;2022-08-05T11:53:16;0.70;;;0.50;;
15458;SDS011;59054;48.692;9.136;2022-08-05T11:55:53;0.70;;;0.60;;
15458;SDS011;59054;48.692;9.136;2022-08-05T11:58:26;0.70;;;0.70;;
15458;SDS011;59054;48.692;9.136;2022-08-05T12:01:00;0.70;;;0.70;;
15458;SDS011;59054;48.692;9.136;2022-08-05T12:03:28;0.70;;;0.55;;
15458;SDS011;59054;48.692;9.136;2022-08-05T12:06:00;0.70;;;0.50;;
15458;SDS011;59054;48.692;9.136;2022-08-05T12:08:29;0.70;;;0.50;;
15458;SDS011;59054;48.692;9.136;2022-08-05T12:10:57;0.70;;;0.70;;
15458;SDS011;59054;48.692;9.136;2022-08-05T12:13:25;0.70;;;0.50;;
15458;SDS011;59054;48.692;9.136;2022-08-05T12:15:52;0.60;;;0.50;;
15458;SDS011;59054;48.692;9.136;2022-08-05T12:18:25;0.70;;;0.60;;
15458;SDS011;59054;48.692;9.136;2022-08-05T12:20:54;0.60;;;0.50;;
15458;SDS011;59054;48.692;9.136;2022-08-05T12:23:21;1.13;;;1.02;;
15458;SDS011;59054;48.692;9.136;2022-08-05T12:25:50;0.70;;;0.50;;
15458;SDS011;59054;48.692;9.136;2022-08-05T12:28:31;0.70;;;0.60;;
15458;SDS011;59054;48.692;9.136;2022-08-05T12:30:58;0.70;;;0.57;;
15458;SDS011;59054;48.692;9.136;2022-08-05T12:33:26;0.70;;;0.63;;
15458;SDS011;59054;48.692;9.136;2022-08-05T12:35:53;0.75;;;0.70;;
15458;SDS011;59054;48.692;9.136;2022-08-05T12:38:21;0.70;;;0.52;;
15458;SDS011;59054;48.692;9.136;2022-08-05T12:40:50;0.82;;;0.82;;
15458;SDS011;59054;48.692;9.136;2022-08-05T12:43:18;0.70;;;0.60;;
15458;SDS011;59054;48.692;9.136;2022-08-05T12:45:51;0.70;;;0.55;;
15458;SDS011;59054;48.692;9.136;2022-08-05T12:48:20;0.70;;;0.60;;
15458;SDS011;59054;48.692;9.136;2022-08-05T12:53:39;0.70;;;0.70;;
15458;SDS011;59054;48.692;9.136;2022-08-05T12:56:17;0.70;;;0.50;;
15458;SDS011;59054;48.692;9.136;2022-08-05T13:01:42;0.70;;;0.60;;
15458;SDS011;59054;48.692;9.136;2022-08-05T13:04:10;0.65;;;0.50;;
15458;SDS011;59054;48.692;9.136;2022-08-05T13:06:39;0.70;;;0.50;;
15458;SDS011;59054;48.692;9.136;2022-08-05T13:09:07;0.70;;;0.50;;
15458;SDS011;59054;48.692;9.136;2022-08-05T13:11:39;0.70;;;0.63;;
15458;SDS011;59054;48.692;9.136;2022-08-05T13:14:17;0.70;;;0.60;;
15458;SDS011;59054;48.692;9.136;2022-08-05T13:16:47;0.70;;;0.57;;
15458;SDS011;59054;48.692;9.136;2022-08-05T13:19:15;0.70;;;0.68;;
15458;SDS011;59054;48.692;9.136;2022-08-05T13:21:45;0.70;;;0.70;;
15458;SDS011;59054;48.692;9.136;2022-08-05T13:24:12;0.80;;;0.80;;
15458;SDS011;59054;48.692;9.136;2022-08-05T13:26:42;0.90;;;0.90;;
15458;SDS011;59054;48.692;9.136;2022-08-05T13:29:10;0.82;;;0.82;;
15458;SDS011;59054;48.692;9.136;2022-08-05T13:31:37;0.90;;;0.90;;
15458;SDS011;59054;48.692;9.136;2022-08-05T13:34:04;0.82;;;0.82;;
15458;SDS011;59054;48.692;9.136;2022-08-05T13:36:32;0.70;;;0.60;;
15458;SDS011;59054;48.692;9.136;2022-08-05T13:38:59;0.70;;;0.70;;
15458;SDS011;59054;48.692;9.136;2022-08-05T13:41:27;0.70;;;0.70;;
15458;SDS011;59054;48.692;9.136;2022-08-05T13:43:55;0.80;;;0.80;;
15458;SDS011;59054;48.692;9.136;2022-08-05T13:46:23;1.08;;;0.98;;
15458;SDS011;59054;48.692;9.136;2022-08-05T13:48:51;0.77;;;0.73;;
15458;SDS011;59054;48.692;9.136;2022-08-05T13:51:24;0.80;;;0.80;;
15458;SDS011;59054;48.692;9.136;2022-08-05T13:53:53;0.70;;;0.63;;
15458;SDS011;59054;48.692;9.136;2022-08-05T13:56:20;0.75;;;0.68;;
15458;SDS011;59054;48.692;9.136;2022-08-05T13:58:47;0.70;;;0.60;;
15458;SDS011;59054;48.692;9.136;2022-08-05T14:01:16;0.60;;;0.45;;
15458;SDS011;59054;48.692;9.136;2022-08-05T14:03:43;0.77;;;0.70;;
15458;SDS011;59054;48.692;9.136;2022-08-05T14:06:30;0.70;;;0.60;;
15458;SDS011;59054;48.692;9.136;2022-08-05T14:09:01;0.65;;;0.50;;
15458;SDS011;59054;48.692;9.136;2022-08-05T14:11:34;0.60;;;0.40;;
15458;SDS011;59054;48.692;9.136;2022-08-05T14:14:05;0.70;;;0.50;;
15458;SDS011;59054;48.692;9.136;2022-08-05T14:16:33;0.70;;;0.70;;
15458;SDS011;59054;48.692;9.136;2022-08-05T14:19:01;0.70;;;0.50;;
15458;SDS011;59054;48.692;9.136;2022-08-05T14:21:28;0.70;;;0.50;;
15458;SDS011;59054;48.692;9.136;2022-08-05T14:23:55;0.70;;;0.50;;
15458;SDS011;59054;48.692;9.136;2022-08-05T14:26:22;0.65;;;0.50;;
15458;SDS011;59054;48.692;9.136;2022-08-05T14:28:49;0.70;;;0.50;;
15458;SDS011;59054;48.692;9.136;2022-08-05T14:31:16;0.70;;;0.55;;
15458;SDS011;59054;48.692;9.136;2022-08-05T14:33:47;0.70;;;0.50;;
15458;SDS011;59054;48.692;9.136;2022-08-05T14:36:14;0.65;;;0.40;;
15458;SDS011;59054;48.692;9.136;2022-08-05T14:38:41;0.93;;;0.50;;
15458;SDS011;59054;48.692;9.136;2022-08-05T14:41:08;0.73;;;0.60;;
15458;SDS011;59054;48.692;9.136;2022-08-05T14:43:35;0.80;;;0.50;;
15458;SDS011;59054;48.692;9.136;2022-08-05T14:46:02;0.70;;;0.50;;
15458;SDS011;59054;48.692;9.136;2022-08-05T14:48:29;0.60;;;0.30;;
15458;SDS011;59054;48.692;9.136;2022-08-05T14:50:57;1.17;;;0.70;;
15458;SDS011;59054;48.692;9.136;2022-08-05T14:53:24;1.35;;;0.68;;
15458;SDS011;59054;48.692;9.136;2022-08-05T14:55:52;1.00;;;0.55;;
15458;SDS011;59054;48.692;9.136;2022-08-05T14:58:18;4.10;;;2.03;;
15458;SDS011;59054;48.692;9.136;2022-08-05T15:00:45;2.45;;;1.90;;
15458;SDS011;59054;48.692;9.136;2022-08-05T15:03:12;2.40;;;2.20;;
15458;SDS011;59054;48.692;9.136;2022-08-05T15:05:39;2.92;;;2.50;;
15458;SDS011;59054;48.692;9.136;2022-08-05T15:08:07;2.15;;;0.68;;
15458;SDS011;59054;48.692;9.136;2022-08-05T15:10:34;0.73;;;0.55;;
15458;SDS011;59054;48.692;9.136;2022-08-05T15:13:01;0.60;;;0.30;;
15458;SDS011;59054;48.692;9.136;2022-08-05T15:15:29;0.77;;;0.63;;
15458;SDS011;59054;48.692;9.136;2022-08-05T15:17:56;0.70;;;0.50;;
15458;SDS011;59054;48.692;9.136;2022-08-05T15:20:23;0.70;;;0.60;;
15458;SDS011;59054;48.692;9.136;2022-08-05T15:22:50;0.70;;;0.50;;
15458;SDS011;59054;48.692;9.136;2022-08-05T15:25:18;0.60;;;0.40;;
15458;SDS011;59054;48.692;9.136;2022-08-05T15:27:46;0.70;;;0.55;;
15458;SDS011;59054;48.692;9.136;2022-08-05T15:30:13;0.70;;;0.60;;
15458;SDS011;59054;48.692;9.136;2022-08-05T15:32:41;0.70;;;0.50;;
15458;SDS011;59054;48.692;9.136;2022-08-05T15:35:08;0.70;;;0.50;;
15458;SDS011;59054;48.692;9.136;2022-08-05T15:37:35;0.70;;;0.50;;
15458;SDS011;59054;48.692;9.136;2022-08-05T15:40:02;0.70;;;0.43;;
15458;SDS011;59054;48.692;9.136;2022-08-05T15:42:30;0.70;;;0.50;;
15458;SDS011;59054;48.692;9.136;2022-08-05T15:44:58;0.70;;;0.40;;
15458;SDS011;59054;48.692;9.136;2022-08-05T15:47:25;0.70;;;0.40;;
15458;SDS011;59054;48.692;9.136;2022-08-05T15:49:52;0.70;;;0.50;;
15458;SDS011;59054;48.692;9.136;2022-08-05T15:52:19;0.70;;;0.50;;
15458;SDS011;59054;48.692;9.136;2022-08-05T15:54:46;0.85;;;0.80;;
15458;SDS011;59054;48.692;9.136;2022-08-05T15:57:12;0.70;;;0.50;;
15458;SDS011;59054;48.692;9.136;2022-08-05T15:59:41;0.73;;;0.60;;
15458;SDS011;59054;48.692;9.136;2022-08-05T16:02:08;0.80;;;0.70;;
15458;SDS011;59054;48.692;9.136;2022-08-05T16:04:35;0.80;;;0.80;;
15458;SDS011;59054;48.692;9.136;2022-08-05T16:07:02;0.60;;;0.40;;
15458;SDS011;59054;48.692;9.136;2022-08-05T16:09:29;0.70;;;0.57;;
15458;SDS011;59054;48.692;9.136;2022-08-05T16:11:56;0.65;;;0.40;;
15458;SDS011;59054;48.692;9.136;2022-08-05T16:14:22;0.70;;;0.50;;
15458;SDS011;59054;48.692;9.136;2022-08-05T16:16:51;0.70;;;0.60;;
15458;SDS011;59054;48.692;9.136;2022-08-05T16:19:18;0.60;;;0.40;;
15458;SDS011;59054;48.692;9.136;2022-08-05T16:21:45;0.70;;;0.40;;
15458;SDS011;59054;48.692;9.136;2022-08-05T16:24:12;0.70;;;0.45;;
15458;SDS011;59054;48.692;9.136;2022-08-05T16:26:48;0.70;;;0.50;;
15458;SDS011;59054;48.692;9.136;2022-08-05T16:29:17;0.70;;;0.52;;
15458;SDS011;59054;48.692;9.136;2022-08-05T16:31:44;0.70;;;0.40;;
15458;SDS011;59054;48.692;9.136;2022-08-05T16:34:12;0.70;;;0.50;;
15458;SDS011;59054;48.692;9.136;2022-08-05T16:36:39;0.75;;;0.65;;
15458;SDS011;59054;48.692;9.136;2022-08-05T16:39:07;0.60;;;0.40;;
15458;SDS011;59054;48.692;9.136;2022-08-05T16:41:34;0.63;;;0.40;;
15458;SDS011;59054;48.692;9.136;2022-08-05T16:44:01;0.70;;;0.40;;
15458;SDS011;59054;48.692;9.136;2022-08-05T16:46:29;0.65;;;0.40;;
15458;SDS011;59054;48.692;9.136;2022-08-05T16:48:55;0.70;;;0.47;;
15458;SDS011;59054;48.692;9.136;2022-08-05T16:51:24;0.70;;;0.50;;
15458;SDS011;59054;48.692;9.136;2022-08-05T16:53:51;0.60;;;0.40;;
15458;SDS011;59054;48.692;9.136;2022-08-05T16:56:18;0.70;;;0.60;;
15458;SDS011;59054;48.692;9.136;2022-08-05T16:58:45;0.60;;;0.40;;
15458;SDS011;59054;48.692;9.136;2022-08-05T17:01:12;0.60;;;0.30;;
15458;SDS011;59054;48.692;9.136;2022-08-05T17:03:39;0.63;;;0.40;;
15458;SDS011;59054;48.692;9.136;2022-08-05T17:06:06;0.70;;;0.50;;
15458;SDS011;59054;48.692;9.136;2022-08-05T17:08:34;0.60;;;0.38;;
15458;SDS011;59054;48.692;9.136;2022-08-05T17:11:01;0.60;;;0.40;;
15458;SDS011;59054;48.692;9.136;2022-08-05T17:13:29;0.70;;;0.40;;
15458;SDS011;59054;48.692;9.136;2022-08-05T17:15:56;0.65;;;0.43;;
15458;SDS011;59054;48.692;9.136;2022-08-05T17:18:23;0.70;;;0.40;;
15458;SDS011;59054;48.692;9.136;2022-08-05T17:20:49;0.70;;;0.47;;
15458;SDS011;59054;48.692;9.136;2022-08-05T17:23:19;0.70;;;0.47;;
15458;SDS011;59054;48.692;9.136;2022-08-05T17:25:48;0.70;;;0.50;;
15458;SDS011;59054;48.692;9.136;2022-08-05T17:28:15;0.68;;;0.55;;
15458;SDS011;59054;48.692;9.136;2022-08-05T17:30:42;0.70;;;0.60;;
15458;SDS011;59054;48.692;9.136;2022-08-05T17:33:09;0.70;;;0.43;;
15458;SDS011;59054;48.692;9.136;2022-08-05T17:35:36;0.80;;;0.70;;
15458;SDS011;59054;48.692;9.136;2022-08-05T17:38:05;0.70;;;0.52;;
15458;SDS011;59054;48.692;9.136;2022-08-05T17:40:32;0.80;;;0.65;;
15458;SDS011;59054;48.692;9.136;2022-08-05T17:43:01;0.80;;;0.75;;
15458;SDS011;59054;48.692;9.136;2022-08-05T17:45:28;0.80;;;0.50;;
